Time;durP1;ratioP1;P1;durP2;ratioP2;P2;SDS_P1;SDS_P2;PMS_P1;PMS_P2;Temp;Humidity;BMP_temperature;BMP_pressure;BME280_temperature;BME280_humidity;BME280_pressure;Samples;Min_cycle;Max_cycle;Signal;HPM_P1;HPM_P2
2022/07/15 00:01:08;;;;;;;;;;;;;;;;;;5037745;28;19913;-41
2022/07/15 00:03:33;;;;;;;;;;;;;;;;;;5037826;28;19975;-42
2022/07/15 00:05:58;;;;;;;;;;;;;;;;;;5037640;28;19952;-41
2022/07/15 00:08:23;;;;;;;;;;;;;;;;;;5037578;28;19963;-41
2022/07/15 00:10:49;;;;;;;;;;;;;;;;;;5037911;28;19956;-41
2022/07/15 00:13:14;;;;;;;;;;;;;;;;;;5037711;28;19940;-41
2022/07/15 00:15:39;;;;;;;;;;;;;;;;;;5037577;28;19910;-41
2022/07/15 00:18:05;;;;;;;;;;;;;;;;;;5037217;28;19909;-41
2022/07/15 00:20:33;;;;;;;;;;;;;;;;;;5037428;28;19921;-41
2022/07/15 00:22:58;;;;;;;;;;;;;;;;;;5037302;28;20395;-42
2022/07/15 00:25:23;;;;;;;;;;;;;;;;;;5036784;28;19909;-40
2022/07/15 00:27:49;;;;;;;;;;;;;;;;;;5037368;28;19913;-41
2022/07/15 00:30:14;;;;;;;;;;;;;;;;;;5037115;28;20315;-41
2022/07/15 00:32:39;;;;;;;;;;;;;;;;;;5036948;28;19917;-42
2022/07/15 00:35:04;;;;;;;;;;;;;;;;;;5037371;28;19913;-41
2022/07/15 00:37:29;;;;;;;;;;;;;;;;;;5037073;28;19913;-41
2022/07/15 00:39:54;;;;;;;;;;;;;;;;;;5036973;28;19909;-41
2022/07/15 00:45:03;;;;;;;;;;;;;;;;;;5036408;28;19963;-42
2022/07/15 00:47:28;;;;;;;;;;;;;;;;;;5036329;28;19913;-41
2022/07/15 00:49:53;;;;;;;;;;;;;;;;;;5037142;28;20052;-41
2022/07/15 00:52:18;;;;;;;;;;;;;;;;;;5037191;28;19913;-41
2022/07/15 00:54:43;;;;;;;;;;;;;;;;;;5036986;28;19977;-41
2022/07/15 00:57:09;;;;;;;;;;;;;;;;;;5036439;28;20020;-41
2022/07/15 00:59:34;;;;;;;;;;;;;;;;;;5036863;28;19949;-41
2022/07/15 01:01:59;;;;;;;;;;;;;;;;;;5036722;28;20284;-41
2022/07/15 01:04:24;;;;;;;;;;;;;;;;;;5036509;28;19925;-41
2022/07/15 01:06:49;;;;;;;;;;;;;;;;;;5036407;28;19913;-41
2022/07/15 01:09:14;;;;;;;;;;;;;;;;;;5036666;28;19905;-42
2022/07/15 01:11:40;;;;;;;;;;;;;;;;;;5035786;28;19913;-41
2022/07/15 01:14:05;;;;;;;;;;;;;;;;;;5036532;28;20368;-41
2022/07/15 01:16:30;;;;;;;;;;;;;;;;;;5035837;28;19913;-42
2022/07/15 01:18:55;;;;;;;;;;;;;;;;;;5036393;28;19909;-41
2022/07/15 01:21:20;;;;;;;;;;;;;;;;;;5036423;28;19972;-41
2022/07/15 01:23:45;;;;;;;;;;;;;;;;;;5036354;28;19964;-41
2022/07/15 01:26:11;;;;;;;;;;;;;;;;;;5036479;28;19909;-42
2022/07/15 01:28:36;;;;;;;;;;;;;;;;;;5035921;28;20323;-42
2022/07/15 01:31:01;;;;;;;;;;;;;;;;;;5036267;28;19910;-41
2022/07/15 01:33:26;;;;;;;;;;;;;;;;;;5036125;28;19917;-41
2022/07/15 01:35:51;;;;;;;;;;;;;;;;;;5036005;28;19913;-41
2022/07/15 01:38:16;;;;;;;;;;;;;;;;;;5035075;28;19909;-41
2022/07/15 01:40:41;;;;;;;;;;;;;;;;;;5036087;28;19909;-42
2022/07/15 01:43:07;;;;;;;;;;;;;;;;;;5036057;28;19909;-41
2022/07/15 01:45:32;;;;;;;;;;;;;;;;;;5036170;28;19910;-42
2022/07/15 01:47:57;;;;;;;;;;;;;;;;;;5035970;28;20272;-41
2022/07/15 01:50:22;;;;;;;;;;;;;;;;;;5035913;28;19909;-41
2022/07/15 01:52:47;;;;;;;;;;;;;;;;;;5035662;28;19920;-41
2022/07/15 01:55:12;;;;;;;;;;;;;;;;;;5035907;28;19918;-41
2022/07/15 01:57:37;;;;;;;;;;;;;;;;;;5036246;28;19936;-41
2022/07/15 02:00:02;;;;;;;;;;;;;;;;;;5036066;28;19963;-41
2022/07/15 02:02:27;;;;;;;;;;;;;;;;;;5036461;28;19931;-41
2022/07/15 02:04:52;;;;;;;;;;;;;;;;;;5035990;28;20372;-41
2022/07/15 02:07:18;;;;;;;;;;;;;;;;;;5036035;28;20260;-41
2022/07/15 02:09:43;;;;;;;;;;;;;;;;;;5035768;28;19948;-41
2022/07/15 02:12:08;;;;;;;;;;;;;;;;;;5036173;28;19917;-41
2022/07/15 02:14:33;;;;;;;;;;;;;;;;;;5036030;28;19940;-42
2022/07/15 02:16:59;;;;;;;;;;;;;;;;;;5035849;28;19909;-41
2022/07/15 02:19:24;;;;;;;;;;;;;;;;;;5035932;28;19913;-41
2022/07/15 02:21:49;;;;;;;;;;;;;;;;;;5035587;28;19956;-41
2022/07/15 02:24:14;;;;;;;;;;;;;;;;;;5035987;28;19909;-41
2022/07/15 02:26:39;;;;;;;;;;;;;;;;;;5035586;28;19905;-41
2022/07/15 02:29:04;;;;;;;;;;;;;;;;;;5035685;28;19909;-41
2022/07/15 02:31:29;;;;;;;;;;;;;;;;;;5035412;28;19913;-41
2022/07/15 02:33:54;;;;;;;;;;;;;;;;;;5035596;28;19909;-42
2022/07/15 02:36:19;;;;;;;;;;;;;;;;;;5035355;28;19909;-41
2022/07/15 02:38:44;;;;;;;;;;;;;;;;;;5035158;28;19916;-41
2022/07/15 02:41:11;;;;;;;;;;;;;;;;;;5035579;28;20268;-41
2022/07/15 02:43:36;;;;;;;;;;;;;;;;;;5035726;28;19912;-42
2022/07/15 02:46:01;;;;;;;;;;;;;;;;;;5035100;28;19909;-41
2022/07/15 02:48:27;;;;;;;;;;;;;;;;;;5035574;28;19917;-41
2022/07/15 02:50:52;;;;;;;;;;;;;;;;;;5038834;28;19910;-41
2022/07/15 02:53:18;;;;;;;;;;;;;;;;;;5038752;28;20352;-41
2022/07/15 02:55:43;;;;;;;;;;;;;;;;;;5038904;28;19947;-42
2022/07/15 02:58:08;;;;;;;;;;;;;;;;;;5038933;28;19913;-42
2022/07/15 03:00:34;;;;;;;;;;;;;;;;;;5038974;28;19924;-42
2022/07/15 03:02:59;;;;;;;;;;;;;;;;;;5038811;28;19910;-41
2022/07/15 03:05:24;;;;;;;;;;;;;;;;;;5038517;28;20296;-41
2022/07/15 03:07:49;;;;;;;;;;;;;;;;;;5038943;28;19968;-41
2022/07/15 03:10:15;;;;;;;;;;;;;;;;;;5038429;28;19913;-41
2022/07/15 03:12:40;;;;;;;;;;;;;;;;;;5038572;28;19913;-41
2022/07/15 03:15:05;;;;;;;;;;;;;;;;;;5038892;28;20291;-39
2022/07/15 03:17:30;;;;;;;;;;;;;;;;;;5038909;28;19917;-39
2022/07/15 03:19:55;;;;;;;;;;;;;;;;;;5038268;28;19913;-41
2022/07/15 03:22:21;;;;;;;;;;;;;;;;;;5038623;28;19909;-41
2022/07/15 03:24:46;;;;;;;;;;;;;;;;;;5038853;28;20288;-41
2022/07/15 03:27:11;;;;;;;;;;;;;;;;;;5038698;28;19944;-41
2022/07/15 03:29:37;;;;;;;;;;;;;;;;;;5038542;28;20396;-41
2022/07/15 03:32:02;;;;;;;;;;;;;;;;;;5038486;28;19917;-41
2022/07/15 03:34:27;;;;;;;;;;;;;;;;;;5038448;28;19956;-41
2022/07/15 03:36:53;;;;;;;;;;;;;;;;;;5038619;28;20003;-41
2022/07/15 03:39:18;;;;;;;;;;;;;;;;;;5038509;28;19909;-41
2022/07/15 03:41:43;;;;;;;;;;;;;;;;;;5038670;28;20272;-41
2022/07/15 03:44:08;;;;;;;;;;;;;;;;;;5038803;28;19920;-40
2022/07/15 03:46:33;;;;;;;;;;;;;;;;;;5038657;28;19916;-41
2022/07/15 03:48:58;;;;;;;;;;;;;;;;;;5038671;28;19932;-41
2022/07/15 03:51:24;;;;;;;;;;;;;;;;;;5038432;28;20364;-41
2022/07/15 03:53:49;;;;;;;;;;;;;;;;;;5038573;28;19909;-41
2022/07/15 03:56:15;;;;;;;;;;;;;;;;;;5038214;28;19916;-41
2022/07/15 03:58:40;;;;;;;;;;;;;;;;;;5037943;28;19917;-41
2022/07/15 04:01:05;;;;;;;;;;;;;;;;;;5036802;28;20429;-41
2022/07/15 04:03:30;;;;;;;;;;;;;;;;;;5037698;28;19910;-41
2022/07/15 04:05:55;;;;;;;;;;;;;;;;;;5037808;28;20384;-42
2022/07/15 04:08:20;;;;;;;;;;;;;;;;;;5038207;28;19913;-41
2022/07/15 04:10:46;;;;;;;;;;;;;;;;;;5037706;28;19920;-41
2022/07/15 04:13:11;;;;;;;;;;;;;;;;;;5037322;28;19939;-41
2022/07/15 04:15:36;;;;;;;;;;;;;;;;;;5037766;28;19967;-42
2022/07/15 04:18:01;;;;;;;;;;;;;;;;;;5037989;28;19921;-42
2022/07/15 04:20:26;;;;;;;;;;;;;;;;;;5037715;28;19909;-41
2022/07/15 04:22:51;;;;;;;;;;;;;;;;;;5037551;28;19917;-41
2022/07/15 04:25:16;;;;;;;;;;;;;;;;;;5037558;28;19972;-42
2022/07/15 04:27:42;;;;;;;;;;;;;;;;;;5036132;28;19909;-41
2022/07/15 04:30:07;;;;;;;;;;;;;;;;;;5036774;28;19909;-41
2022/07/15 04:32:32;;;;;;;;;;;;;;;;;;5036754;28;19913;-41
2022/07/15 04:34:57;;;;;;;;;;;;;;;;;;5036792;28;20357;-41
2022/07/15 04:37:22;;;;;;;;;;;;;;;;;;5037090;28;19913;-41
2022/07/15 04:39:47;;;;;;;;;;;;;;;;;;5036922;28;19913;-41
2022/07/15 04:42:12;;;;;;;;;;;;;;;;;;5036914;28;20276;-41
2022/07/15 04:44:38;;;;;;;;;;;;;;;;;;5036634;28;19909;-42
2022/07/15 04:47:03;;;;;;;;;;;;;;;;;;5036900;28;20272;-42
2022/07/15 04:52:12;;;;;;;;;;;;;;;;;;5036491;28;20026;-41
2022/07/15 04:54:37;;;;;;;;;;;;;;;;;;5036430;28;19913;-41
2022/07/15 04:57:03;;;;;;;;;;;;;;;;;;5036476;28;20382;-41
2022/07/15 04:59:29;;;;;;;;;;;;;;;;;;5036582;28;20008;-41
2022/07/15 05:01:54;;;;;;;;;;;;;;;;;;5036620;28;20365;-41
2022/07/15 05:04:19;;;;;;;;;;;;;;;;;;5036168;28;19952;-42
2022/07/15 05:06:44;;;;;;;;;;;;;;;;;;5036564;28;19916;-41
2022/07/15 05:09:10;;;;;;;;;;;;;;;;;;5036582;28;19909;-41
2022/07/15 05:11:35;;;;;;;;;;;;;;;;;;5036157;28;19913;-41
2022/07/15 05:14:00;;;;;;;;;;;;;;;;;;5035372;28;19952;-41
2022/07/15 05:16:25;;;;;;;;;;;;;;;;;;5035863;28;19920;-40
2022/07/15 05:18:50;;;;;;;;;;;;;;;;;;5036392;28;19972;-40
2022/07/15 05:21:16;;;;;;;;;;;;;;;;;;5036106;28;19916;-40
2022/07/15 05:23:41;;;;;;;;;;;;;;;;;;5027154;28;19920;-41
2022/07/15 05:26:06;;;;;;;;;;;;;;;;;;5026934;28;19917;-41
2022/07/15 05:28:31;;;;;;;;;;;;;;;;;;5031592;28;19913;-41
2022/07/15 05:30:57;;;;;;;;;;;;;;;;;;5022064;28;19913;-41
2022/07/15 05:33:22;;;;;;;;;;;;;;;;;;5022680;28;19917;-41
2022/07/15 05:35:48;;;;;;;;;;;;;;;;;;5019225;28;19921;-41
2022/07/15 05:38:13;;;;;;;;;;;;;;;;;;5028606;28;20264;-41
2022/07/15 05:40:38;;;;;;;;;;;;;;;;;;5024513;28;19917;-41
2022/07/15 05:43:03;;;;;;;;;;;;;;;;;;5030265;28;19921;-41
2022/07/15 05:45:28;;;;;;;;;;;;;;;;;;5030148;28;19917;-41
2022/07/15 05:47:54;;;;;;;;;;;;;;;;;;5030095;28;19913;-40
2022/07/15 05:50:19;;;;;;;;;;;;;;;;;;5029562;28;19913;-42
2022/07/15 05:52:44;;;;;;;;;;;;;;;;;;5030081;28;19963;-41
2022/07/15 05:55:09;;;;;;;;;;;;;;;;;;5018043;28;19967;-42
2022/07/15 05:57:34;;;;;;;;;;;;;;;;;;5028181;28;20342;-41
2022/07/15 05:59:59;;;;;;;;;;;;;;;;;;5028406;28;19978;-41
2022/07/15 06:02:24;;;;;;;;;;;;;;;;;;5025361;28;20007;-41
2022/07/15 06:04:49;;;;;;;;;;;;;;;;;;5027354;28;19929;-41
2022/07/15 06:07:14;;;;;;;;;;;;;;;;;;5025779;28;19960;-41
2022/07/15 06:09:39;;;;;;;;;;;;;;;;;;5026952;28;20419;-42
2022/07/15 06:12:05;;;;;;;;;;;;;;;;;;5009651;28;20430;-41
2022/07/15 06:14:30;;;;;;;;;;;;;;;;;;5021092;28;20020;-41
2022/07/15 06:16:55;;;;;;;;;;;;;;;;;;5002883;28;19923;-41
2022/07/15 06:19:20;;;;;;;;;;;;;;;;;;4996924;28;19929;-41
2022/07/15 06:21:45;;;;;;;;;;;;;;;;;;5002408;28;19928;-41
2022/07/15 06:24:10;;;;;;;;;;;;;;;;;;4988063;28;19934;-41
2022/07/15 06:26:35;;;;;;;;;;;;;;;;;;4995600;28;20010;-41
2022/07/15 06:29:00;;;;;;;;;;;;;;;;;;5012549;28;19921;-41
2022/07/15 06:31:26;;;;;;;;;;;;;;;;;;5016386;28;19921;-42
2022/07/15 06:33:51;;;;;;;;;;;;;;;;;;5020610;28;19927;-42
2022/07/15 06:36:16;;;;;;;;;;;;;;;;;;5019939;28;20585;-41
2022/07/15 06:38:41;;;;;;;;;;;;;;;;;;5019329;28;19921;-41
2022/07/15 06:41:06;;;;;;;;;;;;;;;;;;5016405;28;19921;-41
2022/07/15 06:43:31;;;;;;;;;;;;;;;;;;5021709;28;19967;-41
2022/07/15 06:45:57;;;;;;;;;;;;;;;;;;5017483;28;19940;-42
2022/07/15 06:48:22;;;;;;;;;;;;;;;;;;5016592;28;20007;-41
2022/07/15 06:50:47;;;;;;;;;;;;;;;;;;5016819;28;20379;-42
2022/07/15 06:53:12;;;;;;;;;;;;;;;;;;5020624;28;19925;-41
2022/07/15 06:55:37;;;;;;;;;;;;;;;;;;5018381;28;19987;-41
2022/07/15 06:58:03;;;;;;;;;;;;;;;;;;5022237;28;19913;-40
2022/07/15 07:00:28;;;;;;;;;;;;;;;;;;5015559;28;19921;-41
2022/07/15 07:02:53;;;;;;;;;;;;;;;;;;5015783;28;19971;-41
2022/07/15 07:05:18;;;;;;;;;;;;;;;;;;5027102;28;19921;-40
2022/07/15 07:07:43;;;;;;;;;;;;;;;;;;4998791;28;19924;-43
2022/07/15 07:10:09;;;;;;;;;;;;;;;;;;5013182;28;22105;-41
2022/07/15 07:12:34;;;;;;;;;;;;;;;;;;5010199;28;20300;-42
2022/07/15 07:15:01;;;;;;;;;;;;;;;;;;5013877;28;20343;-41
2022/07/15 07:17:26;;;;;;;;;;;;;;;;;;5019674;28;20064;-41
2022/07/15 07:19:52;;;;;;;;;;;;;;;;;;5012428;28;20004;-42
2022/07/15 07:22:17;;;;;;;;;;;;;;;;;;5003491;28;19917;-42
2022/07/15 07:24:42;;;;;;;;;;;;;;;;;;5010771;28;19920;-42
2022/07/15 07:27:07;;;;;;;;;;;;;;;;;;4970044;28;20004;-42
2022/07/15 07:29:32;;;;;;;;;;;;;;;;;;4992894;28;19921;-42
2022/07/15 07:31:57;;;;;;;;;;;;;;;;;;4981779;28;19921;-42
2022/07/15 07:34:22;;;;;;;;;;;;;;;;;;4982911;28;19921;-42
2022/07/15 07:36:48;;;;;;;;;;;;;;;;;;4986972;28;19921;-41
2022/07/15 07:39:13;;;;;;;;;;;;;;;;;;5005476;28;19929;-42
2022/07/15 07:41:38;;;;;;;;;;;;;;;;;;5002060;28;19921;-41
2022/07/15 07:44:03;;;;;;;;;;;;;;;;;;5001462;28;19917;-41
2022/07/15 07:46:28;;;;;;;;;;;;;;;;;;4997103;28;19921;-42
2022/07/15 07:48:54;;;;;;;;;;;;;;;;;;5004663;28;21853;-42
2022/07/15 07:51:19;;;;;;;;;;;;;;;;;;4995532;28;20420;-41
2022/07/15 07:53:46;;;;;;;;;;;;;;;;;;4998625;28;19964;-42
2022/07/15 07:56:11;;;;;;;;;;;;;;;;;;5016582;28;19921;-39
2022/07/15 07:58:37;;;;;;;;;;;;;;;;;;5003462;28;19921;-42
2022/07/15 08:01:03;;;;;;;;;;;;;;;;;;5001229;28;19953;-40
2022/07/15 08:03:28;;;;;;;;;;;;;;;;;;4997147;28;19988;-42
2022/07/15 08:05:53;;;;;;;;;;;;;;;;;;5032825;22;20287;-42
2022/07/15 08:08:19;;;;;;;;;;;;;;;;;;5020662;28;19966;-40
2022/07/15 08:10:44;;;;;;;;;;;;;;;;;;5019685;28;20025;-41
2022/07/15 08:13:09;;;;;;;;;;;;;;;;;;5022054;28;19971;-42
2022/07/15 08:15:34;;;;;;;;;;;;;;;;;;5007526;28;19964;-41
2022/07/15 08:18:01;;;;;;;;;;;;;;;;;;5006907;28;19919;-40
2022/07/15 08:20:26;;;;;;;;;;;;;;;;;;5001741;28;19927;-41
2022/07/15 08:22:57;;;;;;;;;;;;;;;;;;4997550;28;19921;-41
2022/07/15 08:25:23;;;;;;;;;;;;;;;;;;5004181;28;20574;-40
2022/07/15 08:27:48;;;;;;;;;;;;;;;;;;5001476;28;19955;-39
2022/07/15 08:30:14;;;;;;;;;;;;;;;;;;5001484;28;19921;-40
2022/07/15 08:32:40;;;;;;;;;;;;;;;;;;5014143;28;19925;-40
2022/07/15 08:35:05;;;;;;;;;;;;;;;;;;5020852;28;19983;-40
2022/07/15 08:37:30;;;;;;;;;;;;;;;;;;5010374;28;19928;-41
2022/07/15 08:39:55;;;;;;;;;;;;;;;;;;5017410;28;20273;-41
2022/07/15 08:42:20;;;;;;;;;;;;;;;;;;5009061;28;19972;-40
2022/07/15 08:44:45;;;;;;;;;;;;;;;;;;5005261;28;19920;-42
2022/07/15 08:47:10;;;;;;;;;;;;;;;;;;5013740;28;19917;-40
2022/07/15 08:49:39;;;;;;;;;;;;;;;;;;5015481;28;19916;-43
2022/07/15 08:52:04;;;;;;;;;;;;;;;;;;5020285;28;19962;-44
2022/07/15 08:54:29;;;;;;;;;;;;;;;;;;5009499;28;19921;-42
2022/07/15 08:56:54;;;;;;;;;;;;;;;;;;5018035;28;19944;-42
2022/07/15 08:59:20;;;;;;;;;;;;;;;;;;5003045;28;20110;-42
2022/07/15 09:01:45;;;;;;;;;;;;;;;;;;5024854;28;20422;-42
2022/07/15 09:04:10;;;;;;;;;;;;;;;;;;5018274;28;19932;-43
2022/07/15 09:06:35;;;;;;;;;;;;;;;;;;5024226;28;19924;-42
2022/07/15 09:09:00;;;;;;;;;;;;;;;;;;5010589;28;19932;-42
2022/07/15 09:11:25;;;;;;;;;;;;;;;;;;5016933;28;19927;-41
2022/07/15 09:13:50;;;;;;;;;;;;;;;;;;5017673;28;19921;-42
2022/07/15 09:16:19;;;;;;;;;;;;;;;;;;5008230;28;20368;-41
2022/07/15 09:18:44;;;;;;;;;;;;;;;;;;5018686;28;19937;-43
2022/07/15 09:21:09;;;;;;;;;;;;;;;;;;5009965;28;19932;-42
2022/07/15 09:23:34;;;;;;;;;;;;;;;;;;4997608;28;19928;-42
2022/07/15 09:25:59;;;;;;;;;;;;;;;;;;5011334;28;20502;-42
2022/07/15 09:28:25;;;;;;;;;;;;;;;;;;5026057;28;20344;-42
2022/07/15 09:33:38;;;;;;;;;;;;;;;;;;5024534;28;19935;-42
2022/07/15 09:36:03;;;;;;;;;;;;;;;;;;5020008;28;19928;-43
2022/07/15 09:38:29;;;;;;;;;;;;;;;;;;5026900;28;21514;-42
2022/07/15 09:40:54;;;;;;;;;;;;;;;;;;5029773;28;19919;-42
2022/07/15 09:43:20;;;;;;;;;;;;;;;;;;5031034;28;20370;-42
2022/07/15 09:45:45;;;;;;;;;;;;;;;;;;5033205;28;19970;-42
2022/07/15 09:48:12;;;;;;;;;;;;;;;;;;5026681;28;19921;-42
2022/07/15 09:50:37;;;;;;;;;;;;;;;;;;5027636;28;20453;-43
2022/07/15 09:53:02;;;;;;;;;;;;;;;;;;5034926;28;20547;-42
2022/07/15 09:55:27;;;;;;;;;;;;;;;;;;5033720;28;19921;-41
2022/07/15 09:57:52;;;;;;;;;;;;;;;;;;5031562;28;19943;-42
2022/07/15 10:00:17;;;;;;;;;;;;;;;;;;5037172;28;20465;-42
2022/07/15 10:02:42;;;;;;;;;;;;;;;;;;5032471;28;20325;-42
2022/07/15 10:05:08;;;;;;;;;;;;;;;;;;5032274;28;19998;-42
2022/07/15 10:07:33;;;;;;;;;;;;;;;;;;5036749;28;19925;-44
2022/07/15 10:09:58;;;;;;;;;;;;;;;;;;5038441;28;20368;-42
2022/07/15 10:12:24;;;;;;;;;;;;;;;;;;5042462;28;19917;-43
2022/07/15 10:14:49;;;;;;;;;;;;;;;;;;5039874;28;19916;-42
2022/07/15 10:17:14;;;;;;;;;;;;;;;;;;5041306;28;19924;-42
2022/07/15 10:19:39;;;;;;;;;;;;;;;;;;5039096;28;19924;-42
2022/07/15 10:22:04;;;;;;;;;;;;;;;;;;5043249;28;19917;-43
2022/07/15 10:24:30;;;;;;;;;;;;;;;;;;5038174;28;19917;-42
2022/07/15 10:26:55;;;;;;;;;;;;;;;;;;5039050;28;19920;-42
2022/07/15 10:29:21;;;;;;;;;;;;;;;;;;5032666;28;19930;-43
2022/07/15 10:31:46;;;;;;;;;;;;;;;;;;5039059;28;19979;-42
2022/07/15 10:34:11;;;;;;;;;;;;;;;;;;5034366;28;20031;-42
2022/07/15 10:36:36;;;;;;;;;;;;;;;;;;5035783;28;20405;-42
2022/07/15 10:39:01;;;;;;;;;;;;;;;;;;5040956;28;20330;-42
2022/07/15 10:41:26;;;;;;;;;;;;;;;;;;5044476;28;20334;-43
2022/07/15 10:43:51;;;;;;;;;;;;;;;;;;5034944;28;21889;-42
2022/07/15 10:46:16;;;;;;;;;;;;;;;;;;5031603;28;19915;-42
2022/07/15 10:48:41;;;;;;;;;;;;;;;;;;5038510;28;19917;-42
2022/07/15 10:51:06;;;;;;;;;;;;;;;;;;5035777;28;19925;-43
2022/07/15 10:53:32;;;;;;;;;;;;;;;;;;5034247;28;19931;-42
2022/07/15 10:55:57;;;;;;;;;;;;;;;;;;5035848;28;20402;-42
2022/07/15 10:58:22;;;;;;;;;;;;;;;;;;5036409;28;19982;-42
2022/07/15 11:00:47;;;;;;;;;;;;;;;;;;5043681;28;19928;-44
2022/07/15 11:03:13;;;;;;;;;;;;;;;;;;5037437;28;20036;-42
2022/07/15 11:05:38;;;;;;;;;;;;;;;;;;5033149;28;19979;-42
2022/07/15 11:08:03;;;;;;;;;;;;;;;;;;5022860;28;19920;-42
2022/07/15 11:10:29;;;;;;;;;;;;;;;;;;5022537;28;19952;-42
2022/07/15 11:12:54;;;;;;;;;;;;;;;;;;5022520;28;19920;-42
2022/07/15 11:15:19;;;;;;;;;;;;;;;;;;5031935;28;20427;-42
2022/07/15 11:17:44;;;;;;;;;;;;;;;;;;5037046;28;20277;-42
2022/07/15 11:20:11;;;;;;;;;;;;;;;;;;5035488;28;19916;-44
2022/07/15 11:22:36;;;;;;;;;;;;;;;;;;5040712;28;19920;-41
2022/07/15 11:25:01;;;;;;;;;;;;;;;;;;5031618;28;19921;-42
2022/07/15 11:27:27;;;;;;;;;;;;;;;;;;5025521;28;19913;-42
2022/07/15 11:29:52;;;;;;;;;;;;;;;;;;5036468;28;19921;-43
2022/07/15 11:32:17;;;;;;;;;;;;;;;;;;5031531;28;19921;-43
2022/07/15 11:34:42;;;;;;;;;;;;;;;;;;5027014;28;20324;-41
2022/07/15 11:37:08;;;;;;;;;;;;;;;;;;5037717;28;20378;-42
2022/07/15 11:39:33;;;;;;;;;;;;;;;;;;5034070;28;19932;-42
2022/07/15 11:44:42;;;;;;;;;;;;;;;;;;5045724;28;20755;-43
2022/07/15 11:47:10;;;;;;;;;;;;;;;;;;5031609;28;20300;-43
2022/07/15 11:49:35;;;;;;;;;;;;;;;;;;5031253;28;21504;-42
2022/07/15 11:52:00;;;;;;;;;;;;;;;;;;5028174;28;19925;-42
2022/07/15 11:54:26;;;;;;;;;;;;;;;;;;5028856;28;19920;-42
2022/07/15 11:56:51;;;;;;;;;;;;;;;;;;5045128;28;20146;-42
2022/07/15 11:59:16;;;;;;;;;;;;;;;;;;5042234;28;19927;-42
2022/07/15 12:01:41;;;;;;;;;;;;;;;;;;5040909;28;19923;-42
2022/07/15 12:04:06;;;;;;;;;;;;;;;;;;5044560;28;19917;-42
2022/07/15 12:06:31;;;;;;;;;;;;;;;;;;5040636;28;19928;-42
2022/07/15 12:08:56;;;;;;;;;;;;;;;;;;5036845;28;20083;-42
2022/07/15 12:11:21;;;;;;;;;;;;;;;;;;5029816;28;19921;-42
2022/07/15 12:13:47;;;;;;;;;;;;;;;;;;5039502;28;19969;-45
2022/07/15 12:16:12;;;;;;;;;;;;;;;;;;5031222;28;20259;-42
2022/07/15 12:18:37;;;;;;;;;;;;;;;;;;5042242;28;20011;-42
2022/07/15 12:21:02;;;;;;;;;;;;;;;;;;5045916;28;19920;-42
2022/07/15 12:23:28;;;;;;;;;;;;;;;;;;5038543;28;19913;-43
2022/07/15 12:25:53;;;;;;;;;;;;;;;;;;5045223;28;19913;-42
2022/07/15 12:28:18;;;;;;;;;;;;;;;;;;5043338;28;19917;-41
2022/07/15 12:30:43;;;;;;;;;;;;;;;;;;5034723;28;19920;-42
2022/07/15 12:33:08;;;;;;;;;;;;;;;;;;5035152;28;19920;-42
2022/07/15 12:35:34;;;;;;;;;;;;;;;;;;5041103;28;19927;-43
2022/07/15 12:37:59;;;;;;;;;;;;;;;;;;5033279;28;19921;-42
2022/07/15 12:40:24;;;;;;;;;;;;;;;;;;5042631;28;19913;-43
2022/07/15 12:42:49;;;;;;;;;;;;;;;;;;5043412;28;19944;-43
2022/07/15 12:45:14;;;;;;;;;;;;;;;;;;5038159;28;19916;-43
2022/07/15 12:47:40;;;;;;;;;;;;;;;;;;5049078;28;19913;-43
2022/07/15 12:50:05;;;;;;;;;;;;;;;;;;5034301;28;20636;-42
2022/07/15 12:52:30;;;;;;;;;;;;;;;;;;5045024;28;19921;-43
2022/07/15 12:54:55;;;;;;;;;;;;;;;;;;5047069;28;19925;-42
2022/07/15 12:57:20;;;;;;;;;;;;;;;;;;5038554;28;19936;-43
2022/07/15 12:59:46;;;;;;;;;;;;;;;;;;5038556;28;19927;-42
2022/07/15 13:02:11;;;;;;;;;;;;;;;;;;5032868;28;19919;-42
2022/07/15 13:04:36;;;;;;;;;;;;;;;;;;5039243;28;19924;-43
2022/07/15 13:07:01;;;;;;;;;;;;;;;;;;5039617;28;19913;-42
2022/07/15 13:09:26;;;;;;;;;;;;;;;;;;5037707;28;20364;-42
2022/07/15 13:11:51;;;;;;;;;;;;;;;;;;5035545;28;20280;-44
2022/07/15 13:14:16;;;;;;;;;;;;;;;;;;5032637;28;19917;-42
2022/07/15 13:16:41;;;;;;;;;;;;;;;;;;5039969;28;19956;-42
2022/07/15 13:19:06;;;;;;;;;;;;;;;;;;5036094;28;21561;-42
2022/07/15 13:21:31;;;;;;;;;;;;;;;;;;5041641;28;20019;-43
2022/07/15 13:23:57;;;;;;;;;;;;;;;;;;5036495;28;19921;-42
2022/07/15 13:26:22;;;;;;;;;;;;;;;;;;5043616;28;19912;-43
2022/07/15 13:28:47;;;;;;;;;;;;;;;;;;5044960;28;20367;-42
2022/07/15 13:31:12;;;;;;;;;;;;;;;;;;5038739;28;19917;-42
2022/07/15 13:33:37;;;;;;;;;;;;;;;;;;5042551;28;19925;-42
2022/07/15 13:36:03;;;;;;;;;;;;;;;;;;5033709;28;19927;-42
2022/07/15 13:38:28;;;;;;;;;;;;;;;;;;5034187;28;19920;-43
2022/07/15 13:40:54;;;;;;;;;;;;;;;;;;5050969;28;19935;-42
2022/07/15 13:43:19;;;;;;;;;;;;;;;;;;5050133;28;20256;-42
2022/07/15 13:45:44;;;;;;;;;;;;;;;;;;5048242;28;19925;-42
2022/07/15 13:48:09;;;;;;;;;;;;;;;;;;5051341;28;19920;-42
2022/07/15 13:53:18;;;;;;;;;;;;;;;;;;5052223;28;19930;-43
2022/07/15 13:55:43;;;;;;;;;;;;;;;;;;5046763;28;19921;-43
2022/07/15 13:58:08;;;;;;;;;;;;;;;;;;5046230;28;20015;-43
2022/07/15 14:00:35;;;;;;;;;;;;;;;;;;5044247;28;20003;-41
2022/07/15 14:03:00;;;;;;;;;;;;;;;;;;5042731;28;19915;-42
2022/07/15 14:05:25;;;;;;;;;;;;;;;;;;5046202;28;19925;-43
2022/07/15 14:07:51;;;;;;;;;;;;;;;;;;5054406;28;19948;-43
2022/07/15 14:10:16;;;;;;;;;;;;;;;;;;5045349;28;19964;-44
2022/07/15 14:12:41;;;;;;;;;;;;;;;;;;5045877;28;20360;-43
2022/07/15 14:15:06;;;;;;;;;;;;;;;;;;5043242;28;20279;-43
2022/07/15 14:17:31;;;;;;;;;;;;;;;;;;5051388;28;19920;-41
2022/07/15 14:19:56;;;;;;;;;;;;;;;;;;5054655;28;19911;-42
2022/07/15 14:22:21;;;;;;;;;;;;;;;;;;5052564;28;19913;-42
2022/07/15 14:24:46;;;;;;;;;;;;;;;;;;5050614;28;19913;-42
2022/07/15 14:27:12;;;;;;;;;;;;;;;;;;5047384;28;19920;-42
2022/07/15 14:29:37;;;;;;;;;;;;;;;;;;5048609;28;19920;-42
2022/07/15 14:32:02;;;;;;;;;;;;;;;;;;5042323;28;19932;-43
2022/07/15 14:34:27;;;;;;;;;;;;;;;;;;5051134;28;19912;-42
2022/07/15 14:36:52;;;;;;;;;;;;;;;;;;5051997;28;19913;-42
2022/07/15 14:39:17;;;;;;;;;;;;;;;;;;5049791;28;20376;-42
2022/07/15 14:41:42;;;;;;;;;;;;;;;;;;5047771;28;20257;-42
2022/07/15 14:44:08;;;;;;;;;;;;;;;;;;5044484;28;20346;-42
2022/07/15 14:46:33;;;;;;;;;;;;;;;;;;5055301;28;19921;-42
2022/07/15 14:48:58;;;;;;;;;;;;;;;;;;5056650;28;20443;-42
2022/07/15 14:51:23;;;;;;;;;;;;;;;;;;5052494;28;20418;-42
2022/07/15 14:53:48;;;;;;;;;;;;;;;;;;5041470;28;20260;-42
2022/07/15 14:56:16;;;;;;;;;;;;;;;;;;5055264;28;19939;-42
2022/07/15 14:58:41;;;;;;;;;;;;;;;;;;5053171;28;19938;-42
2022/07/15 15:01:06;;;;;;;;;;;;;;;;;;5057824;28;20011;-42
2022/07/15 15:03:32;;;;;;;;;;;;;;;;;;5057109;28;19983;-43
2022/07/15 15:05:57;;;;;;;;;;;;;;;;;;5052394;28;20003;-42
2022/07/15 15:08:24;;;;;;;;;;;;;;;;;;5037892;28;19910;-42
2022/07/15 15:10:49;;;;;;;;;;;;;;;;;;5048180;28;19917;-43
2022/07/15 15:13:14;;;;;;;;;;;;;;;;;;5055749;28;19916;-43
2022/07/15 15:15:40;;;;;;;;;;;;;;;;;;5039792;28;20003;-43
2022/07/15 15:18:05;;;;;;;;;;;;;;;;;;5056257;28;19967;-42
2022/07/15 15:20:30;;;;;;;;;;;;;;;;;;5055637;28;19952;-42
2022/07/15 15:22:55;;;;;;;;;;;;;;;;;;5054806;28;20395;-43
2022/07/15 15:28:04;;;;;;;;;;;;;;;;;;5055900;28;19940;-42
2022/07/15 15:30:29;;;;;;;;;;;;;;;;;;5053277;28;19917;-44
2022/07/15 15:32:54;;;;;;;;;;;;;;;;;;5055966;28;19924;-44
2022/07/15 15:35:19;;;;;;;;;;;;;;;;;;5042109;28;19909;-42
2022/07/15 15:37:44;;;;;;;;;;;;;;;;;;5038427;28;19913;-42
2022/07/15 15:40:10;;;;;;;;;;;;;;;;;;5047312;28;19912;-44
2022/07/15 15:42:35;;;;;;;;;;;;;;;;;;5044721;28;19948;-43
2022/07/15 15:45:00;;;;;;;;;;;;;;;;;;5050542;28;20280;-43
2022/07/15 15:47:25;;;;;;;;;;;;;;;;;;5048922;28;20307;-43
2022/07/15 15:49:50;;;;;;;;;;;;;;;;;;5056974;28;19916;-43
2022/07/15 15:52:16;;;;;;;;;;;;;;;;;;5051283;28;19921;-42
2022/07/15 15:54:41;;;;;;;;;;;;;;;;;;5056435;28;20393;-43
2022/07/15 15:57:06;;;;;;;;;;;;;;;;;;5048408;28;19970;-43
2022/07/15 15:59:31;;;;;;;;;;;;;;;;;;5050936;28;19920;-42
2022/07/15 16:01:56;;;;;;;;;;;;;;;;;;5051783;28;19913;-43
2022/07/15 16:04:21;;;;;;;;;;;;;;;;;;5055419;28;19919;-43
2022/07/15 16:06:46;;;;;;;;;;;;;;;;;;5056579;28;19920;-42
2022/07/15 16:09:11;;;;;;;;;;;;;;;;;;5056486;28;19915;-43
2022/07/15 16:11:36;;;;;;;;;;;;;;;;;;5056579;28;20001;-43
2022/07/15 16:14:01;;;;;;;;;;;;;;;;;;5056819;28;20011;-45
2022/07/15 16:16:27;;;;;;;;;;;;;;;;;;5056421;28;20318;-42
2022/07/15 16:18:52;;;;;;;;;;;;;;;;;;5055184;28;19962;-42
2022/07/15 16:22:51;;;;;;;;;;;;;;;;;;5056360;28;19909;-43
2022/07/15 16:24:02;;;;;;;;;;;;;;;;;;5056478;28;19909;-42
2022/07/15 16:26:29;;;;;;;;;;;;;;;;;;5054231;28;20139;-42
2022/07/15 16:28:54;;;;;;;;;;;;;;;;;;5056468;28;19909;-42
2022/07/15 16:31:19;;;;;;;;;;;;;;;;;;5056179;28;20340;-42
2022/07/15 16:33:44;;;;;;;;;;;;;;;;;;5051922;28;20327;-43
2022/07/15 16:36:09;;;;;;;;;;;;;;;;;;5056130;28;20295;-42
2022/07/15 16:38:34;;;;;;;;;;;;;;;;;;5055895;28;19908;-43
2022/07/15 16:40:59;;;;;;;;;;;;;;;;;;5056365;28;19908;-43
2022/07/15 16:43:24;;;;;;;;;;;;;;;;;;5055915;28;20356;-43
2022/07/15 16:45:50;;;;;;;;;;;;;;;;;;5056045;28;19938;-44
2022/07/15 16:48:15;;;;;;;;;;;;;;;;;;5056184;28;20256;-42